Startpagina
METAR-TAF:

METAR-TAF

Vliegvelden :

Ketchikan, Alaska, Verenigde Staten

breedte: 55-21-20N, lengte: 131-42-49W, hoogte: 27 m

Actueel weer

Dit bericht is 1 uur en het 8 minuten geleden gemaakt, om 17:53 UTC
Wind 11 kt uit het noordwesten met uitschieters tot 18 kt
Temperatuur 6°C
Vochtigheid 61%
Druk 1027 hPa
Zicht: 16.1 km
Weinig wolken op 2500 ft

METAR: PAKT 101753Z 32011G18KT 10SM FEW025 06/M01 A3033 RMK SLP271 HARBOR WIND 29020KT T00561006 10056 20006 51003 VIA AUTODIAL

Tijdstip: 11:01 (19:01 UTC)

Verwachting

Dit bericht is 1 uur en het 35 minuten geleden gemaakt, om 17:26 UTC
Verwachting geldig van 10 om 18 UTC tot 11 om 18 UTC
Wind 9 kt uit het noordwesten
Zicht: 10 km
Onbewolkt
Van 11 om 1500 UTC
Wind 12 kt uit het noordwesten met uitschieters tot 20 kt
Zicht: 10 km
Onbewolkt

TAF: PAKT 101726Z 1018/1118 31009KT P6SM SKC FM111500 32012G20KT P6SM SKC AMD LTD TO CLD VIS AND WIND 1106/1115

Waarnemingen en weersverwachtingen van meer dan 4000 vliegvelden (METAR en TAF).

De beschikbare stations zijn de gele en rode punten op de kaart.

Ga met uw muis naar het station om de naam te zien.

Klik dan om waarnemingen en weersverwachtingen te zien.

kaart wijzigen: klik op de groene knoppen met een zwart kruis om in te zoomen, op de groene knop met een streepje om uit te zoomen of op de groene pijlen voor aangrenzende kaarten.


METAR-TAF: